메인 페이지
METAR-TAF:

METAR-TAF

공항 :

캔자스시티, 미주리, 미국

위도: 39-17-50N, 경도: 094-43-50W, 고도: 312m

현재 날씨관측

예보는 31분 전, 06:53시(UTC)에 발표되었습니다.
남남서13kt
온도 17°C
습도 52%
기압 1010 hPa
시정: 16.1km
맑음

METAR: KMCI 210653Z 20013KT 10SM CLR 17/07 A2982 RMK AO2 SLP092 T01670067

시각: 02:24 (07:24 UTC)

예보

예보는 2 시간 4분 전, 05:20시(UTC)에 발표되었습니다.
예보 대상 시간: 21일 06시부터 22일 06시까지 (UTC)
11kt
시정: 10km
맑음
21일 0800시부터 (UTC)
9kt
시정: 10km
맑음
21일 1300시부터 (UTC)
15kt, 순간 최대 풍속 25kt
시정: 10km
고도 15000ft 상공 구름 보통
21일 1800시부터 (UTC)
20kt, 순간 최대 풍속 32kt
시정: 10km
고도 15000ft 상공 구름 보통
22일 0100시부터 (UTC)
12kt, 순간 최대 풍속 20kt
시정: 10km
고도 5000ft 상공 구름 보통

TAF: KMCI 210520Z 2106/2206 18011KT P6SM SKC FM210800 17009KT P6SM SKC WS020/21045KT FM211300 19015G25KT P6SM SCT150 FM211800 18020G32KT P6SM SCT150 FM220100 18012G20KT P6SM SCT050

4,000개 이상의 공항 관측 자료 및 예보 (METAR 및 TAF 보고).

지도상에서 검색 가능한 기상관측소가 노란 점과 빨간 점으로 표시되어 있습니다.

기상관측소 명을 보려면 표시 위로 마우스를 이동하세요.

날씨 관측과 예보를 보려면 클릭하세요.

지도 변경 : 확대하려면 엑스 표시가 있는 녹색 버튼, 축소하려면 빼기 표시가 있는 녹색 버튼, 다음 페이지의 지도를 보려면 녹색 화살표를 클릭하세요.


METAR-TAF: